Latest Weather Observations for Portland Harbour

IDV60801

Issued at 7:31 pm EST Sunday 24 May 2015 (issued every 30 minutes, with the page automatically refreshed every 10 minutes)

About weather observations | Map of weather stations | Latest weather observations for VIC | Other Formats
Station Details ID: 090192 Name: PORTLAND NTC AWS Lat: -38.34 Lon: 141.61 Height: 0.0 m
Data from the previous 72 hours. | See also: Recent months for locations in Victoria
Date/Time
EST
Temp
°C
App
Temp
°C
Dew
Point
Rel
Hum
%
Delta-T
°C
Wind Press
QNH
hPa
Press
MSL
hPa
Rain
since 9 am
mm
Dir
 
Spd
km/h
Gust
km/h
Spd
kts
Gust
kts
24/07:30pm 11.6 - - - - NNW 11 15 6 8 1029.4 1029.4 -
24/07:00pm 12.5 - - - - N 15 17 8 9 1029.3 1029.3 -
24/06:30pm 13.0 - - - - N 9 13 5 7 1029.2 1029.2 -
24/06:00pm 12.9 - - - - N 4 6 2 3 1029.0 1029.0 -
24/05:30pm 12.9 - - - - NNW 6 7 3 4 1028.8 1028.8 -
24/05:00pm 13.1 - - - - NW 9 11 5 6 1028.7 1028.7 -
24/04:30pm 13.3 - - - - NNW 11 15 6 8 1028.7 1028.7 -
24/04:00pm 13.5 - - - - NNW 15 19 8 10 1028.4 1028.4 -
24/03:30pm 13.6 - - - - ENE 7 15 4 8 1028.2 1028.2 -
24/03:00pm 14.3 - - - - N 4 6 2 3 1028.2 1028.2 -
24/02:30pm 13.1 - - - - N 13 17 7 9 1028.4 1028.4 -
24/02:00pm 13.1 - - - - N 17 20 9 11 1028.5 1028.5 -
24/01:30pm 13.1 - - - - N 13 17 7 9 1028.8 1028.8 -
24/01:00pm 12.8 - - - - N 13 17 7 9 1029.0 1029.0 -
24/12:30pm 12.0 - - - - NNW 13 17 7 9 1029.3 1029.3 -
24/12:00pm 11.4 - - - - NNW 13 15 7 8 1029.6 1029.6 -
24/11:30am 10.9 - - - - NNW 13 17 7 9 1030.0 1030.0 -
24/11:00am 10.9 - - - - NNW 9 15 5 8 1030.3 1030.3 -
24/10:30am 9.7 - - - - NNW 9 11 5 6 1030.3 1030.3 -
24/10:00am 7.3 - - - - SSW 4 7 2 4 1030.7 1030.7 -
24/09:30am 6.8 - - - - W 6 9 3 5 1030.8 1030.8 -
24/09:00am 5.5 - - - - WNW 6 9 3 5 1030.6 1030.6 -
24/08:30am 6.9 - - - - NW 6 7 3 4 1030.4 1030.4 -
24/08:00am 4.4 - - - - WSW 7 9 4 5 1030.1 1030.1 -
24/07:30am 3.7 - - - - WNW 7 13 4 7 1030.1 1030.1 -
24/07:00am 4.2 - - - - W 7 9 4 5 1029.9 1029.9 -
24/06:30am 5.0 - - - - W 6 7 3 4 1029.6 1029.6 -
24/06:00am 5.7 - - - - WNW 6 9 3 5 1029.4 1029.4 -
24/05:30am 6.5 - - - - WNW 7 9 4 5 1029.2 1029.2 -
24/05:00am 7.8 - - - - NNE 7 11 4 6 1029.1 1029.1 -
24/04:30am 8.3 - - - - NNE 11 15 6 8 1029.1 1029.1 -
24/04:00am 8.7 - - - - NNE 13 17 7 9 1029.0 1029.0 -
24/03:30am 8.9 - - - - NE 13 17 7 9 1029.3 1029.3 -
24/03:00am 9.4 - - - - NE 15 19 8 10 1029.6 1029.6 -
24/02:30am 9.3 - - - - NE 19 20 10 11 1029.5 1029.5 -
24/02:00am 9.8 - - - - ENE 19 24 10 13 1029.7 1029.7 -
24/01:30am 10.2 - - - - NE 24 28 13 15 1029.8 1029.8 -
24/01:00am 10.4 - - - - ENE 22 28 12 15 1030.1 1030.1 -
24/12:30am 10.4 - - - - ENE 22 26 12 14 1030.2 1030.2 -
24/12:00am 10.9 - - - - NE 20 26 11 14 1030.4 1030.4 -
 
Date/Time
EST
Temp
°C
App
Temp
°C
Dew
Point
Rel
Hum
%
Delta-T
°C
Wind Press
QNH
hPa
Press
MSL
hPa
Rain
since 9 am
mm
Dir
 
Spd
km/h
Gust
km/h
Spd
kts
Gust
kts
23/11:30pm 11.0 - - - - ENE 19 24 10 13 1030.3 1030.3 -
23/11:00pm 10.9 - - - - ENE 20 26 11 14 1030.2 1030.2 -
23/10:30pm 11.0 - - - - ENE 17 20 9 11 1030.5 1030.5 -
23/10:00pm 11.1 - - - - ENE 19 24 10 13 1030.7 1030.7 -
23/09:30pm 11.0 - - - - ENE 19 24 10 13 1030.8 1030.8 -
23/09:00pm 11.2 - - - - ENE 22 28 12 15 1031.0 1031.0 -
23/08:30pm 11.1 - - - - ENE 19 24 10 13 1031.3 1031.3 -
23/08:00pm 11.1 - - - - ENE 17 24 9 13 1031.5 1031.5 -
23/07:30pm 11.6 - - - - ENE 17 20 9 11 1031.4 1031.4 -
23/07:00pm 11.7 - - - - ENE 19 24 10 13 1031.2 1031.2 -
23/06:30pm 11.4 - - - - E 19 24 10 13 1031.0 1031.0 -
23/06:00pm 11.6 - - - - E 17 22 9 12 1031.1 1031.1 -
23/05:30pm 11.5 - - - - E 19 24 10 13 1030.9 1030.9 -
23/05:00pm 11.5 - - - - E 15 20 8 11 1031.2 1031.2 -
23/04:30pm 12.0 - - - - E 19 24 10 13 1031.0 1031.0 -
23/04:00pm 12.2 - - - - E 19 24 10 13 1031.0 1031.0 -
23/03:30pm 12.0 - - - - E 17 24 9 13 1030.9 1030.9 -
23/03:00pm 11.7 - - - - ENE 17 24 9 13 1031.2 1031.2 -
23/02:30pm 11.6 - - - - E 15 24 8 13 1031.3 1031.3 -
23/02:00pm 11.6 - - - - E 19 26 10 14 1031.4 1031.4 -
23/01:30pm 11.7 - - - - E 17 22 9 12 1031.5 1031.5 -
23/01:00pm 11.4 - - - - E 19 26 10 14 1031.8 1031.8 -
23/12:30pm 11.5 - - - - E 19 26 10 14 1032.0 1032.0 -
23/12:00pm 11.6 - - - - ESE 17 22 9 12 1032.7 1032.7 -
23/11:30am 12.1 - - - - ESE 17 24 9 13 1033.1 1033.1 -
23/11:00am 11.8 - - - - ESE 11 17 6 9 1033.6 1033.6 -
23/10:30am 11.6 - - - - SE 11 22 6 12 1033.7 1033.7 -
23/10:00am 11.8 - - - - ESE 15 24 8 13 1033.5 1033.5 -
23/09:30am 11.6 - - - - ESE 15 19 8 10 1033.7 1033.7 -
23/09:00am 11.6 - - - - E 13 20 7 11 1033.6 1033.6 -
23/08:30am 11.7 - - - - E 15 22 8 12 1033.3 1033.3 -
23/08:00am 11.5 - - - - E 13 24 7 13 1033.2 1033.2 -
23/07:30am 11.5 - - - - E 15 24 8 13 1032.7 1032.7 -
23/07:00am 11.7 - - - - ESE 15 26 8 14 1032.8 1032.8 -
23/06:30am 11.8 - - - - SE 15 22 8 12 1032.6 1032.6 -
23/06:00am 11.8 - - - - ESE 11 15 6 8 1032.5 1032.5 -
23/05:30am 11.7 - - - - ESE 9 19 5 10 1032.5 1032.5 -
23/05:00am 11.5 - - - - ESE 9 17 5 9 1032.3 1032.3 -
23/04:30am 11.7 - - - - SE 11 17 6 9 1032.2 1032.2 -
23/04:00am 11.7 - - - - SSE 13 19 7 10 1032.2 1032.2 -
23/03:30am 11.7 - - - - ESE 13 20 7 11 1032.1 1032.1 -
23/03:00am 11.9 - - - - SE 17 22 9 12 1032.3 1032.3 -
23/02:30am 12.0 - - - - E 13 19 7 10 1032.2 1032.2 -
23/02:00am 11.8 - - - - ESE 15 26 8 14 1032.4 1032.4 -
23/01:30am 12.0 - - - - E 17 24 9 13 1032.3 1032.3 -
23/01:00am 11.8 - - - - SE 17 22 9 12 1032.4 1032.4 -
23/12:30am 11.7 - - - - SE 17 24 9 13 1032.8 1032.8 -
23/12:00am 11.9 - - - - SSE 19 26 10 14 1032.9 1032.9 -
 
Date/Time
EST
Temp
°C
App
Temp
°C
Dew
Point
Rel
Hum
%
Delta-T
°C
Wind Press
QNH
hPa
Press
MSL
hPa
Rain
since 9 am
mm
Dir
 
Spd
km/h
Gust
km/h
Spd
kts
Gust
kts
22/11:30pm 12.1 - - - - SE 17 26 9 14 1032.8 1032.8 -
22/11:00pm 11.9 - - - - ESE 15 24 8 13 1033.0 1033.0 -
22/10:30pm 11.9 - - - - SSE 17 22 9 12 1033.2 1033.2 -
22/10:00pm 12.2 - - - - SSE 20 28 11 15 1033.1 1033.1 -
22/09:30pm 12.4 - - - - SSE 20 26 11 14 1033.1 1033.1 -
22/09:00pm 12.4 - - - - SE 15 20 8 11 1033.1 1033.1 -
22/08:30pm 12.0 - - - - SSE 9 15 5 8 1033.2 1033.2 -
22/08:00pm 12.0 - - - - SE 13 20 7 11 1033.1 1033.1 -
22/07:30pm 11.9 - - - - SSE 19 26 10 14 1033.1 1033.1 -
22/07:00pm 12.2 - - - - SE 20 32 11 17 1032.7 1032.7 -
22/06:30pm 12.0 - - - - SSE 13 19 7 10 1032.7 1032.7 -
22/06:00pm 12.0 - - - - SSE 17 26 9 14 1032.5 1032.5 -
22/05:30pm 12.1 - - - - SSE 15 22 8 12 1032.4 1032.4 -
22/05:00pm 12.1 - - - - SE 13 20 7 11 1032.4 1032.4 -
22/04:30pm 12.1 - - - - SE 19 28 10 15 1032.3 1032.3 -
22/04:00pm 12.3 - - - - SSE 17 26 9 14 1032.1 1032.1 -
22/03:30pm 12.1 - - - - SE 19 26 10 14 1031.9 1031.9 -
22/03:00pm 12.3 - - - - SSE 17 26 9 14 1031.7 1031.7 -
22/02:30pm 12.3 - - - - SE 20 30 11 16 1031.7 1031.7 -
22/02:00pm 12.4 - - - - SE 19 26 10 14 1031.8 1031.8 -
22/01:30pm 12.1 - - - - SE 19 26 10 14 1032.0 1032.0 -
22/01:00pm 12.3 - - - - SE 17 24 9 13 1032.1 1032.1 -
22/12:30pm 12.1 - - - - SE 20 26 11 14 1032.2 1032.2 -
22/12:00pm 12.2 - - - - SSE 20 28 11 15 1032.4 1032.4 -
22/11:30am 12.3 - - - - SE 19 26 10 14 1032.4 1032.4 -
22/11:00am 12.3 - - - - SE 20 33 11 18 1032.5 1032.5 -
22/10:30am 12.3 - - - - SE 20 28 11 15 1032.4 1032.4 -
22/10:00am 12.2 - - - - SSE 24 32 13 17 1032.0 1032.0 -
22/09:30am 12.2 - - - - SSE 20 30 11 16 1031.8 1031.8 -
22/09:00am 12.4 - - - - SSE 20 33 11 18 1031.7 1031.7 -
22/08:30am 12.4 - - - - SE 22 35 12 19 1031.4 1031.4 -
22/08:00am 12.5 - - - - SSE 22 32 12 17 1031.1 1031.1 -
22/07:30am 12.5 - - - - SSE 20 33 11 18 1030.9 1030.9 -
22/07:00am 12.5 - - - - SSE 15 22 8 12 1030.6 1030.6 -
22/06:30am 12.6 - - - - SE 20 30 11 16 1030.5 1030.5 -
22/06:00am 12.8 - - - - SE 26 32 14 17 1030.1 1030.1 -
22/05:30am 12.8 - - - - SSE 15 26 8 14 1029.8 1029.8 -
22/05:00am 12.8 - - - - SSE 19 24 10 13 1029.7 1029.7 -
22/04:30am 12.7 - - - - SSE 22 33 12 18 1029.6 1029.6 -
22/04:00am 13.0 - - - - SSE 17 30 9 16 1029.4 1029.4 -
22/03:30am 13.0 - - - - SSE 17 26 9 14 1029.3 1029.3 -
22/03:00am 13.0 - - - - SSE 26 39 14 21 1029.4 1029.4 -
22/02:30am 13.0 - - - - SSE 20 28 11 15 1029.3 1029.3 -
22/02:00am 13.0 - - - - SSE 17 26 9 14 1029.2 1029.2 -
22/01:30am 13.2 - - - - SSE 19 30 10 16 1029.1 1029.1 -
22/01:00am 13.1 - - - - SSE 17 26 9 14 1028.9 1028.9 -
22/12:30am 12.9 - - - - SSE 22 28 12 15 1029.0 1029.0 -
22/12:00am 13.0 - - - - S 22 28 12 15 1028.8 1028.8 -
 
Date/Time
EST
Temp
°C
App
Temp
°C
Dew
Point
Rel
Hum
%
Delta-T
°C
Wind Press
QNH
hPa
Press
MSL
hPa
Rain
since 9 am
mm
Dir
 
Spd
km/h
Gust
km/h
Spd
kts
Gust
kts
21/11:30pm 12.6 - - - - SSE 15 22 8 12 1028.9 1028.9 -
21/11:00pm 13.0 - - - - SSE 20 30 11 16 1028.9 1028.9 -
21/10:30pm 13.0 - - - - SSE 24 32 13 17 1029.0 1029.0 -
21/10:00pm 12.8 - - - - S 20 26 11 14 1029.0 1029.0 -
21/09:30pm 12.7 - - - - S 19 28 10 15 1028.8 1028.8 -
21/09:00pm 12.7 - - - - S 22 32 12 17 1028.7 1028.7 -
21/08:30pm 12.5 - - - - S 20 28 11 15 1028.4 1028.4 -
21/08:00pm 12.9 - - - - SSE 20 28 11 15 1028.0 1028.0 -

Other Formats:

Comma delimited format used in spreadsheet applications
http://www.bom.gov.au/fwo/IDV60801/IDV60801.95826.axf

JavaScript Object Notation format (JSON) in row-major order
http://www.bom.gov.au/fwo/IDV60801/IDV60801.95826.json